createdAt,value
2018-08-13T00:01:07.497Z,100.00
2018-08-13T00:03:36.573Z,100.00
2018-08-13T00:06:05.833Z,100.00
2018-08-13T00:08:34.993Z,100.00
2018-08-13T00:11:04.244Z,99.38
2018-08-13T00:13:33.369Z,98.69
2018-08-13T00:16:02.585Z,98.13
2018-08-13T00:18:32.058Z,98.07
2018-08-13T00:21:01.274Z,98.14
2018-08-13T00:23:30.486Z,98.89
2018-08-13T00:25:59.509Z,99.51
2018-08-13T00:28:28.609Z,100.00
2018-08-13T00:30:57.873Z,100.00
2018-08-13T00:33:27.100Z,100.00
2018-08-13T00:35:56.269Z,100.00
2018-08-13T00:38:25.497Z,100.00
2018-08-13T00:40:54.470Z,100.00
2018-08-13T00:43:23.704Z,100.00
2018-08-13T00:45:52.860Z,100.00
2018-08-13T00:48:22.049Z,100.00
2018-08-13T00:50:51.181Z,100.00
2018-08-13T00:53:20.377Z,100.00
2018-08-13T00:55:49.549Z,100.00
2018-08-13T00:58:18.653Z,100.00
2018-08-13T01:00:47.834Z,100.00
2018-08-13T01:03:17.094Z,100.00
2018-08-13T01:05:46.284Z,100.00
2018-08-13T01:08:15.450Z,100.00
2018-08-13T01:10:44.632Z,100.00
2018-08-13T01:13:13.833Z,100.00
2018-08-13T01:15:43.082Z,100.00
2018-08-13T01:18:12.259Z,100.00
2018-08-13T01:20:41.420Z,100.00
2018-08-13T01:23:10.658Z,100.00
2018-08-13T01:25:40.074Z,100.00
2018-08-13T01:28:09.164Z,100.00
2018-08-13T01:30:38.327Z,100.00
2018-08-13T01:33:07.696Z,100.00
2018-08-13T01:35:36.825Z,100.00
2018-08-13T01:38:06.018Z,100.00
2018-08-13T01:40:35.245Z,100.00
2018-08-13T01:43:04.262Z,100.00
2018-08-13T01:45:33.247Z,100.00
2018-08-13T01:48:02.921Z,100.00
2018-08-13T01:50:32.147Z,100.00
2018-08-13T01:53:01.358Z,100.00
2018-08-13T01:55:30.538Z,100.00
2018-08-13T01:58:00.241Z,100.00
2018-08-13T02:00:29.319Z,100.00
2018-08-13T02:02:58.513Z,100.00
2018-08-13T02:05:28.211Z,100.00
2018-08-13T02:07:57.700Z,100.00
2018-08-13T02:10:26.719Z,100.00
2018-08-13T02:12:55.928Z,100.00
2018-08-13T02:15:25.121Z,100.00
2018-08-13T02:17:54.344Z,100.00
2018-08-13T02:20:23.415Z,100.00
2018-08-13T02:22:52.717Z,100.00
2018-08-13T02:25:22.009Z,100.00
2018-08-13T02:27:51.317Z,100.00
2018-08-13T02:30:20.553Z,100.00
2018-08-13T02:32:49.728Z,100.00
2018-08-13T02:35:18.910Z,100.00
2018-08-13T02:37:48.109Z,100.00
2018-08-13T02:40:17.304Z,100.00
2018-08-13T02:42:46.530Z,100.00
2018-08-13T02:45:15.797Z,100.00
2018-08-13T02:47:45.133Z,100.00
2018-08-13T02:50:14.793Z,100.00
2018-08-13T02:52:43.911Z,100.00
2018-08-13T02:55:13.304Z,100.00
2018-08-13T02:57:42.414Z,100.00
2018-08-13T03:00:12.073Z,100.00
2018-08-13T03:02:41.509Z,100.00
2018-08-13T03:05:12.317Z,100.00
2018-08-13T03:07:41.513Z,100.00
2018-08-13T03:10:12.469Z,100.00
2018-08-13T03:12:41.869Z,100.00
2018-08-13T03:15:13.040Z,100.00
2018-08-13T03:17:42.293Z,100.00
2018-08-13T03:20:11.445Z,100.00
2018-08-13T03:22:40.642Z,100.00
2018-08-13T03:25:10.626Z,100.00
2018-08-13T03:27:39.801Z,100.00
2018-08-13T03:30:11.732Z,100.00
2018-08-13T03:32:41.441Z,100.00
2018-08-13T03:35:10.461Z,100.00
2018-08-13T03:37:39.661Z,100.00
2018-08-13T03:40:10.450Z,100.00
2018-08-13T03:42:39.492Z,100.00
2018-08-13T03:45:09.968Z,100.00
2018-08-13T03:47:39.073Z,100.00
2018-08-13T03:50:09.373Z,100.00
2018-08-13T03:52:38.488Z,99.46
2018-08-13T03:55:08.984Z,98.49
2018-08-13T03:57:38.073Z,93.15
2018-08-13T04:00:10.721Z,83.42
2018-08-13T04:02:39.888Z,77.12
2018-08-13T04:05:09.600Z,71.43
2018-08-13T04:07:39.349Z,67.11
2018-08-13T04:10:10.653Z,64.25
2018-08-13T04:12:41.234Z,59.27
2018-08-13T04:15:11.727Z,57.63
2018-08-13T04:17:41.325Z,55.61
2018-08-13T04:20:11.654Z,52.61
2018-08-13T04:22:40.702Z,51.73
2018-08-13T04:25:10.639Z,50.08
2018-08-13T04:27:40.614Z,47.69
2018-08-13T04:30:11.870Z,44.01
2018-08-13T04:32:41.030Z,43.87
2018-08-13T04:35:10.294Z,42.43
2018-08-13T04:37:39.717Z,43.68
2018-08-13T04:40:10.741Z,41.97
2018-08-13T04:42:40.075Z,40.16
2018-08-13T04:45:09.729Z,38.40
2018-08-13T04:47:38.673Z,41.07
2018-08-13T04:50:08.797Z,40.00
2018-08-13T04:52:38.247Z,39.28
2018-08-13T04:55:08.657Z,40.57
2018-08-13T04:57:37.917Z,38.93
2018-08-13T05:00:07.760Z,37.77
2018-08-13T05:02:36.940Z,38.65
2018-08-13T05:05:06.824Z,38.60
2018-08-13T05:07:35.937Z,37.36
2018-08-13T05:10:05.622Z,37.59
2018-08-13T05:12:34.644Z,37.27
2018-08-13T05:15:04.025Z,37.01
2018-08-13T05:17:33.045Z,35.83
2018-08-13T05:20:02.280Z,33.96
2018-08-13T05:22:31.441Z,33.19
2018-08-13T05:25:00.637Z,31.91
2018-08-13T05:27:30.117Z,31.81
2018-08-13T05:29:59.436Z,31.58
2018-08-13T05:32:28.574Z,30.86
2018-08-13T05:34:57.741Z,30.52
2018-08-13T05:37:26.933Z,31.01
2018-08-13T05:39:56.136Z,31.36
2018-08-13T05:42:25.337Z,30.62
2018-08-13T05:44:54.855Z,29.34
2018-08-13T05:47:24.032Z,29.53
2018-08-13T05:49:53.235Z,30.53
2018-08-13T05:52:22.441Z,30.22
2018-08-13T05:54:51.628Z,26.17
2018-08-13T05:57:20.977Z,27.77
2018-08-13T05:59:50.134Z,27.05
2018-08-13T06:02:19.364Z,28.68
2018-08-13T06:04:48.529Z,28.11
2018-08-13T06:07:17.830Z,27.67
2018-08-13T06:09:47.074Z,28.98
2018-08-13T06:12:16.113Z,31.07
2018-08-13T06:14:45.420Z,32.50
2018-08-13T06:17:14.623Z,34.02
2018-08-13T06:19:43.824Z,33.99
2018-08-13T06:22:13.150Z,33.45
2018-08-13T06:24:42.605Z,32.42
2018-08-13T06:27:11.713Z,32.07
2018-08-13T06:29:40.918Z,32.66
2018-08-13T06:32:10.109Z,32.14
2018-08-13T06:34:39.597Z,30.21
2018-08-13T06:37:08.824Z,28.86
2018-08-13T06:39:38.046Z,28.18
2018-08-13T06:42:07.299Z,29.50
2018-08-13T06:44:36.526Z,28.83
2018-08-13T06:47:05.825Z,28.02
2018-08-13T06:49:35.023Z,28.45
2018-08-13T06:52:04.757Z,29.98
2018-08-13T06:54:34.022Z,32.70
2018-08-13T06:57:03.454Z,30.57
2018-08-13T06:59:32.517Z,28.60
2018-08-13T07:02:01.562Z,29.82
2018-08-13T07:04:30.753Z,27.67
2018-08-13T07:06:59.923Z,29.21
2018-08-13T07:09:29.134Z,27.93
2018-08-13T07:11:58.257Z,28.29
2018-08-13T07:14:27.409Z,30.18
2018-08-13T07:16:56.678Z,26.41
2018-08-13T07:19:25.805Z,28.07
2018-08-13T07:21:54.997Z,26.97
2018-08-13T07:24:24.486Z,26.76
2018-08-13T07:26:53.523Z,27.87
2018-08-13T07:29:22.742Z,26.55
2018-08-13T07:31:51.937Z,26.45
2018-08-13T07:34:20.913Z,26.76
2018-08-13T07:36:50.257Z,25.73
2018-08-13T07:39:19.547Z,25.74
2018-08-13T07:41:48.737Z,26.42
2018-08-13T07:44:17.894Z,27.19
2018-08-13T07:46:47.114Z,28.43
2018-08-13T07:49:16.279Z,29.06
2018-08-13T07:51:45.524Z,29.83
2018-08-13T07:54:14.700Z,28.56
2018-08-13T07:56:43.772Z,27.00
2018-08-13T07:59:13.141Z,27.75
2018-08-13T08:01:42.329Z,27.86
2018-08-13T08:04:11.472Z,25.10
2018-08-13T08:06:40.956Z,25.14
2018-08-13T08:09:12.200Z,26.41
2018-08-13T08:11:41.674Z,23.36
2018-08-13T08:14:10.937Z,23.08
2018-08-13T08:16:40.366Z,25.12
2018-08-13T08:19:09.429Z,22.55
2018-08-13T08:21:38.629Z,22.25
2018-08-13T08:24:07.744Z,22.05
2018-08-13T08:26:36.945Z,21.70
2018-08-13T08:29:07.125Z,21.24
2018-08-13T08:31:36.140Z,23.40
2018-08-13T08:34:05.340Z,25.26
2018-08-13T08:36:34.538Z,22.42
2018-08-13T08:39:03.969Z,22.07
2018-08-13T08:41:33.045Z,21.07
2018-08-13T08:44:02.080Z,21.84
2018-08-13T08:46:31.220Z,21.96
2018-08-13T08:49:00.705Z,21.70
2018-08-13T08:51:29.713Z,23.20
2018-08-13T08:53:58.941Z,24.24
2018-08-13T08:56:28.121Z,22.66
2018-08-13T08:58:57.354Z,23.32
2018-08-13T09:01:26.531Z,22.41
2018-08-13T09:03:55.718Z,22.76
2018-08-13T09:06:25.118Z,24.60
2018-08-13T09:08:54.225Z,24.99
2018-08-13T09:11:23.424Z,24.73
2018-08-13T09:13:52.626Z,22.60
2018-08-13T09:16:21.814Z,23.20
2018-08-13T09:19:01.746Z,23.25
2018-08-13T09:21:33.409Z,21.79
2018-08-13T09:24:14.066Z,22.76
2018-08-13T09:26:54.004Z,22.64
2018-08-13T09:29:33.920Z,23.35
2018-08-13T09:32:29.873Z,23.73
2018-08-13T09:35:31.959Z,22.24
2018-08-13T09:38:01.258Z,22.91
2018-08-13T09:40:31.643Z,22.95
2018-08-13T09:43:00.596Z,23.89
2018-08-13T09:45:29.589Z,22.37
2018-08-13T09:47:58.875Z,21.97
2018-08-13T09:50:27.911Z,21.42
2018-08-13T09:52:57.222Z,23.43
2018-08-13T09:55:26.083Z,22.90
2018-08-13T09:57:55.288Z,22.35
2018-08-13T10:01:32.688Z,22.69
2018-08-13T10:04:01.765Z,22.45
2018-08-13T10:06:30.798Z,22.48
2018-08-13T10:09:00.020Z,20.35
2018-08-13T10:11:29.175Z,20.15
2018-08-13T10:13:58.497Z,20.16
2018-08-13T10:16:27.768Z,20.59
2018-08-13T10:18:57.037Z,19.89
2018-08-13T10:21:26.086Z,21.04
2018-08-13T10:23:55.255Z,21.94
2018-08-13T10:26:24.572Z,21.31
2018-08-13T10:28:53.749Z,22.08
2018-08-13T10:31:23.002Z,23.75
2018-08-13T10:33:52.154Z,21.76
2018-08-13T10:36:21.342Z,22.70
2018-08-13T10:38:50.373Z,22.96
2018-08-13T10:41:19.606Z,21.07
2018-08-13T10:43:48.734Z,20.00
2018-08-13T10:46:18.015Z,21.22
2018-08-13T10:48:47.133Z,20.70
2018-08-13T10:51:16.321Z,22.22
2018-08-13T10:53:46.463Z,22.23
2018-08-13T10:56:15.689Z,23.08
2018-08-13T10:58:44.853Z,22.07
2018-08-13T11:01:14.333Z,22.91
2018-08-13T11:03:43.679Z,22.65
2018-08-13T11:06:13.061Z,23.48
2018-08-13T11:08:42.269Z,21.96
2018-08-13T11:11:11.645Z,20.64
2018-08-13T11:13:40.751Z,20.44
2018-08-13T11:16:09.980Z,19.44
2018-08-13T11:18:39.137Z,19.34
2018-08-13T11:21:08.344Z,18.40
2018-08-13T11:23:37.421Z,17.38
2018-08-13T11:26:06.536Z,18.04
2018-08-13T11:28:35.629Z,19.12
2018-08-13T11:31:04.933Z,20.23
2018-08-13T11:33:34.232Z,20.78
2018-08-13T11:36:03.498Z,21.64
2018-08-13T11:38:32.625Z,21.04
2018-08-13T11:41:01.887Z,20.51
2018-08-13T11:43:31.023Z,19.85
2018-08-13T11:46:00.342Z,18.34
2018-08-13T11:48:29.539Z,19.41
2018-08-13T11:50:58.726Z,20.11
2018-08-13T11:53:27.989Z,18.90
2018-08-13T11:55:57.121Z,19.45
2018-08-13T11:58:26.310Z,17.50
2018-08-13T12:00:55.573Z,16.79
2018-08-13T12:03:24.717Z,17.74
2018-08-13T12:05:53.977Z,17.80
2018-08-13T12:08:23.240Z,17.15
2018-08-13T12:10:52.410Z,17.87
2018-08-13T12:13:21.515Z,16.59
2018-08-13T12:15:50.709Z,17.75
2018-08-13T12:18:20.045Z,15.95
2018-08-13T12:20:49.215Z,16.02
2018-08-13T12:23:18.406Z,16.44
2018-08-13T12:25:47.603Z,17.57
2018-08-13T12:28:16.806Z,18.71
2018-08-13T12:30:46.125Z,18.55
2018-08-13T12:33:15.308Z,19.58
2018-08-13T12:35:44.503Z,20.72
2018-08-13T12:38:13.709Z,20.48
2018-08-13T12:40:42.881Z,19.94
2018-08-13T12:43:12.293Z,18.59
2018-08-13T12:45:41.405Z,17.44
2018-08-13T12:48:10.604Z,17.61
2018-08-13T12:50:39.682Z,18.92
2018-08-13T12:53:09.011Z,19.48
2018-08-13T12:55:38.215Z,18.38
2018-08-13T12:58:07.535Z,18.00
2018-08-13T13:00:36.906Z,18.05
2018-08-13T13:03:06.210Z,20.34
2018-08-13T13:05:35.317Z,19.73
2018-08-13T13:08:04.785Z,21.88
2018-08-13T13:10:34.089Z,23.97
2018-08-13T13:13:03.305Z,23.53
2018-08-13T13:15:32.495Z,24.59
2018-08-13T13:18:01.714Z,26.23
2018-08-13T13:20:30.688Z,25.76
2018-08-13T13:22:59.873Z,25.80
2018-08-13T13:25:29.105Z,26.34
2018-08-13T13:27:58.269Z,25.82
2018-08-13T13:30:27.267Z,26.92
2018-08-13T13:32:56.505Z,26.27
2018-08-13T13:35:25.694Z,26.92
2018-08-13T13:37:54.904Z,27.47
2018-08-13T13:40:24.226Z,27.54
2018-08-13T13:42:53.572Z,27.27
2018-08-13T13:45:22.892Z,27.30
2018-08-13T13:47:52.167Z,26.87
2018-08-13T13:50:21.370Z,26.21
2018-08-13T13:52:50.560Z,26.11
2018-08-13T13:55:19.781Z,26.70
2018-08-13T13:57:48.950Z,28.41
2018-08-13T14:00:20.646Z,27.50
2018-08-13T14:02:50.727Z,27.40
2018-08-13T14:05:19.933Z,28.35
2018-08-13T14:07:49.189Z,27.85
2018-08-13T14:10:21.341Z,26.81
2018-08-13T14:12:50.882Z,27.38
2018-08-13T14:15:21.137Z,26.37
2018-08-13T14:17:50.474Z,25.37
2018-08-13T14:20:19.689Z,25.12
2018-08-13T14:22:48.921Z,25.01
2018-08-13T14:25:18.121Z,26.92
2018-08-13T14:27:47.317Z,27.01
2018-08-13T14:30:19.489Z,25.30
2018-08-13T14:32:48.996Z,25.60
2018-08-13T14:35:19.022Z,25.64
2018-08-13T14:37:48.233Z,26.08
2018-08-13T14:40:17.404Z,25.60
2018-08-13T14:42:52.068Z,24.64
2018-08-13T14:45:20.802Z,25.48
2018-08-13T14:47:50.899Z,26.56
2018-08-13T14:50:19.691Z,25.45
2018-08-13T14:52:49.077Z,27.29
2018-08-13T14:55:20.154Z,25.72
2018-08-13T14:57:48.829Z,25.92
2018-08-13T15:00:21.465Z,26.75
2018-08-13T15:02:50.681Z,26.45
2018-08-13T15:05:19.947Z,25.63
2018-08-13T15:07:49.397Z,26.20
2018-08-13T15:10:19.981Z,27.14
2018-08-13T15:12:49.226Z,26.55
2018-08-13T15:15:23.169Z,29.51
2018-08-13T15:17:57.480Z,26.91
2018-08-13T15:20:32.822Z,28.70
2018-08-13T15:23:07.669Z,27.80
2018-08-13T15:25:41.527Z,29.11
2018-08-13T15:28:16.695Z,28.69
2018-08-13T15:30:50.293Z,27.78
2018-08-13T15:33:23.603Z,29.43
2018-08-13T15:35:52.910Z,30.21
2018-08-13T15:38:24.251Z,28.69
2018-08-13T15:40:57.126Z,29.83
2018-08-13T15:43:29.765Z,27.38
2018-08-13T15:46:02.232Z,28.72
2018-08-13T15:48:34.538Z,29.88
2018-08-13T15:51:06.928Z,28.16
2018-08-13T15:53:39.983Z,29.39
2018-08-13T15:56:11.802Z,29.70
2018-08-13T15:58:44.801Z,31.65
2018-08-13T16:01:13.881Z,31.19
2018-08-13T16:03:43.085Z,31.64
2018-08-13T16:06:12.279Z,32.54
2018-08-13T16:08:41.518Z,32.94
2018-08-13T16:11:10.814Z,33.50
2018-08-13T16:13:40.082Z,32.77
2018-08-13T16:16:09.329Z,34.03
2018-08-13T16:18:38.376Z,34.43
2018-08-13T16:21:07.366Z,35.28
2018-08-13T16:23:36.602Z,35.25
2018-08-13T16:26:05.766Z,36.27
2018-08-13T16:28:34.829Z,39.41
2018-08-13T16:31:04.169Z,40.60
2018-08-13T16:33:33.453Z,43.92
2018-08-13T16:36:02.691Z,45.20
2018-08-13T16:38:31.858Z,46.66
2018-08-13T16:41:01.338Z,46.15
2018-08-13T16:43:30.352Z,47.79
2018-08-13T16:45:59.558Z,48.36
2018-08-13T16:48:28.805Z,49.26
2018-08-13T16:50:57.946Z,50.83
2018-08-13T16:53:27.259Z,51.83
2018-08-13T16:55:56.578Z,52.44
2018-08-13T16:58:26.028Z,56.68
2018-08-13T17:00:55.111Z,59.61
2018-08-13T17:03:24.239Z,60.82
2018-08-13T17:05:53.592Z,60.58
2018-08-13T17:08:23.019Z,57.77
2018-08-13T17:10:52.194Z,63.63
2018-08-13T17:13:21.576Z,64.15
2018-08-13T17:15:50.758Z,61.18
2018-08-13T17:18:19.985Z,61.77
2018-08-13T17:20:49.200Z,64.36
2018-08-13T17:23:18.389Z,66.21
2018-08-13T17:25:47.603Z,65.50
2018-08-13T17:28:16.772Z,66.77
2018-08-13T17:30:45.985Z,68.26
2018-08-13T17:33:15.137Z,69.51
2018-08-13T17:35:44.383Z,69.29
2018-08-13T17:38:13.613Z,70.76
2018-08-13T17:40:42.873Z,73.02
2018-08-13T17:43:12.483Z,67.81
2018-08-13T17:45:41.568Z,67.89
2018-08-13T17:48:11.152Z,70.25
2018-08-13T17:50:40.413Z,72.94
2018-08-13T17:53:10.053Z,73.65
2018-08-13T17:55:39.270Z,71.15
2018-08-13T17:58:08.668Z,73.59
2018-08-13T18:00:37.879Z,76.31
2018-08-13T18:03:07.337Z,75.85
2018-08-13T18:05:36.594Z,75.99
2018-08-13T18:08:05.829Z,76.56
2018-08-13T18:10:35.506Z,76.39
2018-08-13T18:13:06.097Z,77.26
2018-08-13T18:15:35.593Z,78.97
2018-08-13T18:18:05.031Z,79.89
2018-08-13T18:20:34.250Z,80.07
2018-08-13T18:23:03.437Z,77.47
2018-08-13T18:25:32.597Z,78.72
2018-08-13T18:28:01.829Z,79.33
2018-08-13T18:30:30.918Z,77.85
2018-08-13T18:33:00.111Z,81.24
2018-08-13T18:35:29.358Z,80.38
2018-08-13T18:37:58.711Z,81.86
2018-08-13T18:40:32.943Z,81.73
2018-08-13T18:43:02.268Z,83.62
2018-08-13T18:45:31.405Z,85.06
2018-08-13T18:48:01.155Z,81.96
2018-08-13T18:50:30.228Z,81.02
2018-08-13T18:52:59.470Z,83.32
2018-08-13T18:55:28.480Z,81.52
2018-08-13T18:57:57.320Z,83.16
2018-08-13T19:00:28.569Z,85.74
2018-08-13T19:02:58.410Z,85.74
2018-08-13T19:05:27.436Z,86.05
2018-08-13T19:07:56.298Z,87.36
2018-08-13T19:10:25.087Z,88.15
2018-08-13T19:12:54.025Z,89.83
2018-08-13T19:15:24.760Z,90.61
2018-08-13T19:17:54.038Z,90.43
2018-08-13T19:20:23.043Z,90.34
2018-08-13T19:22:51.909Z,88.37
2018-08-13T19:25:23.166Z,90.37
2018-08-13T19:27:51.897Z,89.56
2018-08-13T19:30:21.682Z,87.78
2018-08-13T19:32:50.952Z,87.24
2018-08-13T19:35:19.722Z,87.15
2018-08-13T19:37:48.877Z,89.23
2018-08-13T19:40:19.896Z,88.93
2018-08-13T19:42:49.546Z,90.90
2018-08-13T19:45:19.206Z,91.10
2018-08-13T19:47:48.463Z,91.07
2018-08-13T19:50:17.449Z,92.45
2018-08-13T19:52:47.309Z,92.02
2018-08-13T19:55:16.489Z,92.43
2018-08-13T19:57:45.214Z,91.98
2018-08-13T20:00:21.002Z,92.25
2018-08-13T20:02:50.310Z,92.93
2018-08-13T20:05:20.405Z,92.72
2018-08-13T20:07:49.433Z,93.47
2018-08-13T20:10:18.218Z,93.04
2018-08-13T20:12:47.377Z,93.00
2018-08-13T20:15:16.140Z,91.79
2018-08-13T20:17:45.159Z,90.66
2018-08-13T20:20:16.171Z,89.96
2018-08-13T20:22:45.806Z,89.12
2018-08-13T20:25:16.698Z,90.09
2018-08-13T20:27:45.935Z,89.84
2018-08-13T20:30:18.504Z,89.94
2018-08-13T20:32:49.224Z,90.85
2018-08-13T20:35:18.722Z,91.51
2018-08-13T20:37:47.555Z,91.66
2018-08-13T20:40:17.965Z,88.06
2018-08-13T20:42:47.383Z,87.57
2018-08-13T20:45:17.916Z,87.56
2018-08-13T20:47:47.185Z,86.62
2018-08-13T20:50:19.178Z,86.92
2018-08-13T20:52:48.832Z,86.11
2018-08-13T20:55:20.267Z,86.07
2018-08-13T20:57:49.493Z,86.78
2018-08-13T21:00:20.885Z,87.27
2018-08-13T21:02:49.597Z,87.86
2018-08-13T21:05:18.623Z,90.87
2018-08-13T21:07:48.400Z,91.51
2018-08-13T21:10:18.387Z,90.01
2018-08-13T21:12:47.129Z,89.98
2018-08-13T21:15:16.746Z,90.47
2018-08-13T21:17:45.613Z,90.63
2018-08-13T21:20:21.560Z,92.77
2018-08-13T21:22:50.364Z,92.40
2018-08-13T21:25:19.120Z,93.47
2018-08-13T21:27:48.001Z,93.85
2018-08-13T21:30:16.772Z,93.57
2018-08-13T21:32:45.788Z,95.07
2018-08-13T21:35:23.165Z,94.19
2018-08-13T21:37:52.066Z,95.55
2018-08-13T21:40:20.891Z,95.25
2018-08-13T21:42:50.357Z,94.07
2018-08-13T21:45:19.150Z,96.00
2018-08-13T21:47:47.916Z,94.87
2018-08-13T21:50:18.955Z,94.90
2018-08-13T21:52:48.571Z,95.69
2018-08-13T21:55:17.346Z,96.59
2018-08-13T21:57:46.095Z,95.29
2018-08-13T22:00:24.778Z,96.65
2018-08-13T22:02:53.865Z,96.48
2018-08-13T22:05:22.641Z,96.90
2018-08-13T22:07:51.405Z,96.28
2018-08-13T22:10:20.091Z,96.05
2018-08-13T22:12:48.877Z,96.14
2018-08-13T22:15:25.808Z,95.27
2018-08-13T22:17:55.720Z,96.50
2018-08-13T22:20:25.148Z,97.53
2018-08-13T22:22:54.080Z,97.26
2018-08-13T22:25:29.645Z,93.07
2018-08-13T22:27:58.777Z,93.17
2018-08-13T22:30:27.911Z,95.22
2018-08-13T22:32:56.633Z,94.20
2018-08-13T22:35:25.341Z,95.38
2018-08-13T22:37:54.185Z,95.19
2018-08-13T22:40:22.904Z,93.89
2018-08-13T22:42:51.646Z,92.95
2018-08-13T22:45:21.829Z,92.69
2018-08-13T22:47:50.607Z,92.75
2018-08-13T22:50:19.351Z,94.46
2018-08-13T22:52:48.095Z,93.48
2018-08-13T22:55:18.185Z,92.19
2018-08-13T22:57:47.063Z,94.19
2018-08-13T23:00:16.953Z,92.26
2018-08-13T23:02:46.616Z,92.04
2018-08-13T23:05:19.532Z,92.43
2018-08-13T23:07:48.317Z,93.39
2018-08-13T23:10:18.393Z,93.67
2018-08-13T23:12:48.309Z,93.42
2018-08-13T23:15:17.613Z,92.89
2018-08-13T23:17:46.926Z,93.59
2018-08-13T23:20:23.987Z,92.92
2018-08-13T23:23:06.826Z,93.80
2018-08-13T23:25:36.710Z,93.96
2018-08-13T23:28:07.733Z,93.89
2018-08-13T23:30:36.495Z,94.39
2018-08-13T23:33:05.709Z,94.92
2018-08-13T23:35:34.404Z,94.60
2018-08-13T23:38:03.128Z,94.70
2018-08-13T23:40:31.823Z,95.31
2018-08-13T23:43:00.588Z,95.77
2018-08-13T23:45:31.105Z,96.19
2018-08-13T23:48:00.430Z,94.57
2018-08-13T23:50:29.313Z,94.75
2018-08-13T23:53:00.275Z,95.05
2018-08-13T23:55:32.878Z,94.18
2018-08-13T23:58:01.996Z,94.17
